Huvudsida
METAR-TAF:

METAR-TAF

Flygplatser :

Halmstad City Airport

Halmstad, Sverige

latitud: 56-41N, longitud: 012-50E, höjd: 30 m

Aktuellt väderrapport

Denna rapport gjordes för 32 minuter sedan, klockan 09:20 UTC
Vind 11 kt från ost/nordost
Temperatur 19°C
Fuktighet 73%
Tryck 1026 hPa
Sikt 10 km eller mer
Få moln på en höjd av 4400 ft
Brutna moln på en höjd av 6000 ft

METAR: ESMT 270920Z 07011KT 9999 FEW044 BKN060 19/14 Q1026

Tid: 11:52 (09:52 UTC)


TAF: saknas

Aktuella väderrapporter och prognoser från 4000 flygplatser (METAR- och TAF-rapporter).

De tillgängliga stationerna syns som gula och röda prickar på kartan.

För musen över prickarna för att se namnen på stationerna.

Klicka sedan för att få väderrapporter och prognoser.

För att ändra kartan: Klicka på de gröna knapparna med ett svart kors på för att zooma in; den gröna knappen med ett streck på för att zooma ut; eller på de gröna pilarna för angränsande kartor.


METAR-TAF: